createdAt,value
2023-04-23T00:02:49.255Z,7.07
2023-04-23T00:07:51.289Z,10.07
2023-04-23T00:12:52.342Z,6.10
2023-04-23T00:17:53.452Z,7.15
2023-04-23T00:22:54.294Z,7.55
2023-04-23T00:27:55.168Z,5.95
2023-04-23T00:32:56.035Z,5.70
2023-04-23T00:37:56.848Z,8.32
2023-04-23T00:42:57.615Z,6.12
2023-04-23T00:47:59.205Z,7.45
2023-04-23T00:53:00.862Z,6.68
2023-04-23T00:58:01.946Z,8.00
2023-04-23T01:03:04.269Z,5.78
2023-04-23T01:08:05.676Z,6.97
2023-04-23T01:13:06.826Z,7.50
2023-04-23T01:18:07.872Z,7.72
2023-04-23T01:23:08.687Z,7.45
2023-04-23T01:28:09.931Z,6.03
2023-04-23T01:33:11.195Z,9.45
2023-04-23T01:38:13.545Z,8.68
2023-04-23T01:43:14.988Z,7.47
2023-04-23T01:48:16.867Z,7.82
2023-04-23T01:53:17.743Z,9.60
2023-04-23T01:58:18.795Z,7.03
2023-04-23T02:03:19.954Z,8.23
2023-04-23T02:08:21.444Z,7.22
2023-04-23T02:13:22.385Z,5.25
2023-04-23T02:18:23.309Z,7.07
2023-04-23T02:23:24.086Z,5.95
2023-04-23T02:28:24.996Z,8.27
2023-04-23T02:33:25.789Z,5.50
2023-04-23T02:38:26.625Z,4.45
2023-04-23T02:43:27.441Z,5.65
2023-04-23T02:48:29.240Z,7.43
2023-04-23T02:53:30.152Z,5.72
2023-04-23T02:58:31.142Z,7.15
2023-04-23T03:03:33.894Z,5.70
2023-04-23T03:08:36.263Z,5.45
2023-04-23T03:13:37.065Z,6.40
2023-04-23T03:18:37.991Z,7.47
2023-04-23T03:23:38.781Z,10.90
2023-04-23T03:28:40.138Z,9.38
2023-04-23T03:33:41.171Z,5.85
2023-04-23T03:38:41.998Z,6.57
2023-04-23T03:43:42.838Z,4.93
2023-04-23T03:48:52.082Z,5.90
2023-04-23T03:53:57.911Z,6.07
2023-04-23T03:59:08.896Z,6.03
2023-04-23T04:04:10.058Z,5.10
2023-04-23T04:09:11.201Z,19.83
2023-04-23T04:14:12.001Z,25.65
2023-04-23T04:19:12.853Z,9.57
2023-04-23T04:24:13.818Z,6.12
2023-04-23T04:29:15.053Z,7.62
2023-04-23T04:34:17.055Z,7.80
2023-04-23T04:39:18.363Z,8.80
2023-04-23T04:44:19.288Z,7.97
2023-04-23T04:49:21.400Z,9.43
2023-04-23T04:54:22.169Z,7.72
2023-04-23T04:59:23.233Z,7.90
2023-04-23T05:04:24.155Z,7.37
2023-04-23T05:09:25.336Z,8.05
2023-04-23T05:14:26.666Z,10.65
2023-04-23T05:19:27.737Z,9.32
2023-04-23T05:24:28.478Z,12.40
2023-04-23T05:29:29.329Z,13.32
2023-04-23T05:34:30.085Z,11.10
2023-04-23T05:39:30.894Z,9.85
2023-04-23T05:44:31.684Z,9.80
2023-04-23T05:49:32.833Z,11.60
2023-04-23T05:54:33.605Z,10.60
2023-04-23T05:59:34.851Z,12.75
2023-04-23T06:04:36.657Z,13.60
2023-04-23T06:09:38.082Z,13.18
2023-04-23T06:14:38.906Z,12.90
2023-04-23T06:19:41.306Z,10.80
2023-04-23T06:24:42.489Z,11.63
2023-04-23T06:29:43.748Z,11.23
2023-04-23T06:34:59.443Z,12.77
2023-04-23T06:40:02.093Z,8.43
2023-04-23T06:45:05.926Z,11.63
2023-04-23T06:50:07.902Z,8.77
2023-04-23T06:55:09.460Z,8.43
2023-04-23T07:00:11.943Z,8.23
2023-04-23T07:05:17.122Z,7.68
2023-04-23T07:10:18.363Z,9.45
2023-04-23T07:15:19.350Z,10.60
2023-04-23T07:20:20.234Z,13.80
2023-04-23T07:25:21.802Z,12.93
2023-04-23T07:30:24.090Z,12.27
2023-04-23T07:35:26.044Z,15.90
2023-04-23T07:40:27.773Z,15.73
2023-04-23T07:45:28.629Z,16.48
2023-04-23T07:50:29.570Z,20.02
2023-04-23T07:55:30.473Z,9.40
2023-04-23T08:00:31.459Z,14.50
2023-04-23T08:05:32.294Z,14.00
2023-04-23T08:10:34.356Z,13.00
2023-04-23T08:15:35.481Z,14.57
2023-04-23T08:20:36.581Z,15.65
2023-04-23T08:25:37.441Z,13.93
2023-04-23T08:30:38.348Z,14.07
2023-04-23T08:35:39.646Z,10.10
2023-04-23T08:40:41.821Z,10.43
2023-04-23T08:45:46.578Z,9.67
2023-04-23T08:50:47.985Z,9.90
2023-04-23T08:55:50.048Z,7.12
2023-04-23T09:00:51.190Z,7.27
2023-04-23T09:05:55.238Z,5.15
2023-04-23T09:11:00.211Z,12.43
2023-04-23T09:16:01.365Z,9.50
2023-04-23T09:21:03.697Z,5.87
2023-04-23T09:26:07.668Z,5.03
2023-04-23T09:31:09.480Z,4.53
2023-04-23T09:36:13.380Z,4.75
2023-04-23T09:41:25.184Z,7.90
2023-04-23T09:46:37.703Z,3.95
2023-04-23T09:51:44.565Z,6.68
2023-04-23T09:56:49.987Z,6.12
2023-04-23T10:01:52.251Z,6.55
2023-04-23T10:12:01.549Z,16.62
2023-04-23T10:17:04.213Z,5.65
2023-04-23T10:32:27.021Z,4.87
2023-04-23T10:37:28.769Z,6.80
2023-04-23T10:42:29.758Z,5.82
2023-04-23T10:47:30.543Z,5.90
2023-04-23T10:52:31.856Z,5.05
2023-04-23T10:57:57.740Z,8.32
2023-04-23T11:03:01.528Z,5.10
2023-04-23T11:13:22.173Z,4.43
2023-04-23T11:18:23.202Z,6.10
2023-04-23T11:23:33.161Z,3.30
2023-04-23T11:28:36.039Z,4.40
2023-04-23T11:38:38.648Z,6.15
2023-04-23T11:43:42.489Z,5.85
2023-04-23T11:48:43.283Z,10.32
2023-04-23T11:53:46.327Z,5.82
2023-04-23T12:03:48.581Z,3.55
2023-04-23T12:08:49.626Z,3.97
2023-04-23T12:13:50.671Z,4.82
2023-04-23T12:18:53.062Z,4.87
2023-04-23T12:23:53.813Z,5.12
2023-04-23T12:28:58.330Z,5.70
2023-04-23T12:34:08.269Z,4.53
2023-04-23T12:39:28.679Z,8.23
2023-04-23T12:44:39.064Z,8.98
2023-04-23T12:49:41.237Z,6.40
2023-04-23T12:54:43.994Z,4.70
2023-04-23T12:59:44.962Z,7.07
2023-04-23T13:04:46.098Z,5.82
2023-04-23T13:09:46.929Z,3.17
2023-04-23T13:14:48.029Z,5.05
2023-04-23T13:19:48.821Z,4.65
2023-04-23T13:24:49.694Z,6.37
2023-04-23T13:29:50.465Z,2.35
2023-04-23T13:34:51.363Z,3.50
2023-04-23T13:39:52.227Z,6.57
2023-04-23T13:44:53.090Z,3.95
2023-04-23T13:49:53.963Z,3.85
2023-04-23T13:54:56.380Z,4.30
2023-04-23T13:59:57.766Z,2.25
2023-04-23T14:04:58.725Z,3.90
2023-04-23T14:09:59.939Z,2.90
2023-04-23T14:15:01.080Z,3.22
2023-04-23T14:20:02.022Z,3.83
2023-04-23T14:25:09.048Z,3.17
2023-04-23T14:30:19.242Z,3.33
2023-04-23T14:35:29.428Z,3.58
2023-04-23T14:40:37.130Z,3.33
2023-04-23T14:45:38.000Z,5.62
2023-04-23T14:50:38.908Z,4.15
2023-04-23T14:55:42.432Z,5.32
2023-04-23T15:00:43.485Z,2.45
2023-04-23T15:05:44.642Z,5.45
2023-04-23T15:10:45.768Z,4.55
2023-04-23T15:15:55.901Z,3.12
2023-04-23T15:20:56.830Z,8.07
2023-04-23T15:25:57.859Z,4.57
2023-04-23T15:30:58.895Z,4.45
2023-04-23T15:36:00.136Z,2.33
2023-04-23T15:41:01.555Z,7.37
2023-04-23T15:46:02.669Z,3.83
2023-04-23T15:51:03.819Z,3.90
2023-04-23T15:56:04.695Z,3.12
2023-04-23T16:01:06.429Z,1.85
2023-04-23T16:06:07.415Z,2.80
2023-04-23T16:11:08.307Z,4.85
2023-04-23T16:16:09.101Z,2.62
2023-04-23T16:21:10.642Z,1.10
2023-04-23T16:26:11.537Z,3.03
2023-04-23T16:31:12.413Z,1.92
2023-04-23T16:36:13.529Z,3.50
2023-04-23T16:41:20.605Z,1.50
2023-04-23T16:46:21.633Z,3.22
2023-04-23T16:51:23.411Z,5.70
2023-04-23T16:56:24.253Z,3.95
2023-04-23T17:01:25.166Z,7.32
2023-04-23T17:06:30.822Z,4.53
2023-04-23T17:11:31.801Z,13.27
2023-04-23T17:16:32.630Z,10.15
2023-04-23T17:21:33.393Z,5.32
2023-04-23T17:26:34.270Z,5.87
2023-04-23T17:31:36.930Z,2.85
2023-04-23T17:36:39.690Z,2.87
2023-04-23T17:41:40.583Z,2.67
2023-04-23T17:46:41.551Z,1.42
2023-04-23T17:51:42.395Z,3.20
2023-04-23T17:56:43.251Z,2.87
2023-04-23T18:01:44.238Z,1.48
2023-04-23T18:06:45.229Z,1.40
2023-04-23T18:11:46.075Z,1.98
2023-04-23T18:16:46.931Z,2.78
2023-04-23T18:21:49.208Z,2.72
2023-04-23T18:26:51.259Z,2.20
2023-04-23T18:31:52.948Z,4.78
2023-04-23T18:36:54.781Z,2.87
2023-04-23T18:41:56.016Z,7.10
2023-04-23T18:46:57.346Z,4.70
2023-04-23T18:51:58.292Z,1.73
2023-04-23T18:56:59.124Z,7.30
2023-04-23T19:02:00.070Z,8.57
2023-04-23T19:07:01.708Z,2.75
2023-04-23T19:12:02.766Z,2.80
2023-04-23T19:17:03.607Z,2.03
2023-04-23T19:22:04.486Z,4.50
2023-04-23T19:27:06.345Z,2.72
2023-04-23T19:32:07.148Z,2.75
2023-04-23T19:37:08.052Z,1.83
2023-04-23T19:42:09.939Z,3.25
2023-04-23T19:47:10.920Z,8.13
2023-04-23T19:52:16.509Z,4.10
2023-04-23T19:57:19.210Z,2.92
2023-04-23T20:02:20.131Z,1.60
2023-04-23T20:07:21.069Z,4.07
2023-04-23T20:12:22.601Z,2.83
2023-04-23T20:17:25.785Z,3.97
2023-04-23T20:32:31.283Z,2.35
2023-04-23T20:37:34.183Z,3.67
2023-04-23T20:42:38.240Z,4.12
2023-04-23T20:47:43.652Z,5.30
2023-04-23T20:52:45.075Z,2.75
2023-04-23T20:57:46.200Z,3.80
2023-04-23T21:02:47.131Z,4.75
2023-04-23T21:07:48.241Z,3.53
2023-04-23T21:12:49.548Z,8.68
2023-04-23T21:17:50.363Z,5.18
2023-04-23T21:22:51.119Z,6.82
2023-04-23T21:27:53.496Z,4.25
2023-04-23T21:32:54.831Z,6.37
2023-04-23T21:37:56.005Z,2.92
2023-04-23T21:42:56.893Z,3.65
2023-04-23T21:47:57.740Z,6.40
2023-04-23T21:52:58.920Z,3.90
2023-04-23T21:58:13.715Z,6.87
2023-04-23T22:03:22.298Z,1.98
2023-04-23T22:08:30.655Z,2.25
2023-04-23T22:13:31.425Z,3.28
2023-04-23T22:18:32.209Z,2.92
2023-04-23T22:23:32.958Z,4.80
2023-04-23T22:28:33.742Z,2.08
2023-04-23T22:33:35.702Z,4.30
2023-04-23T22:38:36.752Z,2.95
2023-04-23T22:43:38.300Z,4.25
2023-04-23T22:48:43.952Z,6.15
2023-04-23T22:53:44.811Z,4.80
2023-04-23T22:58:45.662Z,5.55
2023-04-23T23:03:46.530Z,3.78
2023-04-23T23:08:48.073Z,2.53
2023-04-23T23:13:49.526Z,5.12
2023-04-23T23:18:50.361Z,3.12
2023-04-23T23:23:51.357Z,4.03
2023-04-23T23:28:52.140Z,3.55
2023-04-23T23:33:59.364Z,5.00
2023-04-23T23:39:00.489Z,5.55
2023-04-23T23:44:01.323Z,2.67
2023-04-23T23:49:02.153Z,3.65
2023-04-23T23:54:03.141Z,3.95
2023-04-23T23:59:03.899Z,4.57
